Time;durP1;ratioP1;P1;durP2;ratioP2;P2;SDS_P1;SDS_P2;PMS_P1;PMS_P2;Temp;Humidity;BMP_temperature;BMP_pressure;BME280_temperature;BME280_humidity;BME280_pressure;Samples;Min_cycle;Max_cycle;Signal;HPM_P1;HPM_P2
2022/10/02 00:02:27;;;;;;;3.22;1.60;;;;;;;12.73;100.00;99528.91;4434934;32;34428;-72
2022/10/02 00:05:46;;;;;;;1.70;1.20;;;;;;;12.31;100.00;99536.91;4447383;32;34169;-73
2022/10/02 00:08:34;;;;;;;3.40;1.40;;;;;;;12.69;100.00;99542.47;4416485;32;34301;-75
2022/10/02 00:11:40;;;;;;;2.67;1.17;;;;;;;12.24;100.00;99553.03;4435638;32;35102;-74
2022/10/02 00:14:29;;;;;;;2.12;1.30;;;;;;;12.40;100.00;99556.12;4434821;32;34175;-74
2022/10/02 00:17:31;;;;;;;3.87;1.27;;;;;;;12.31;100.00;99556.12;4424284;32;32797;-75
2022/10/02 00:20:18;;;;;;;2.72;1.48;;;;;;;12.30;100.00;99565.50;4435609;32;33756;-72
2022/10/02 00:23:15;;;;;;;2.97;1.60;;;;;;;12.22;100.00;99555.34;4435488;32;34931;-75
2022/10/02 00:26:05;;;;;;;2.90;1.40;;;;;;;12.24;100.00;99564.88;4424974;32;34538;-74
2022/10/02 00:29:13;;;;;;;3.30;1.30;;;;;;;12.29;100.00;99556.44;4417462;32;32227;-76
2022/10/02 00:32:18;;;;;;;2.07;1.20;;;;;;;12.42;100.00;99562.91;4447442;32;33382;-72
2022/10/02 00:35:35;;;;;;;2.40;1.00;;;;;;;12.38;100.00;99567.44;4449013;32;33758;-72
2022/10/02 00:38:45;;;;;;;2.58;1.12;;;;;;;12.46;100.00;99580.34;4449082;32;34181;-75
2022/10/02 00:41:34;;;;;;;2.97;1.20;;;;;;;12.54;100.00;99579.53;4449717;32;32821;-74
2022/10/02 00:44:23;;;;;;;2.72;1.20;;;;;;;12.50;100.00;99575.84;4448603;32;34693;-74
2022/10/02 00:47:45;;;;;;;3.50;1.40;;;;;;;12.42;100.00;99582.13;4437596;32;34123;-72
2022/10/02 00:50:45;;;;;;;3.10;1.50;;;;;;;12.39;100.00;99577.28;4418528;32;33734;-74
2022/10/02 00:53:38;;;;;;;3.08;1.40;;;;;;;12.60;100.00;99588.41;4436695;32;33337;-72
2022/10/02 00:56:30;;;;;;;4.12;1.40;;;;;;;12.68;100.00;99595.03;4437342;32;33765;-76
2022/10/02 00:59:54;;;;;;;3.10;1.30;;;;;;;12.14;100.00;99578.91;4437132;32;33599;-74
2022/10/02 01:03:18;;;;;;;3.80;1.20;;;;;;;12.38;100.00;99583.94;4449170;32;34902;-73
2022/10/02 01:06:06;;;;;;;2.60;1.48;;;;;;;12.02;100.00;99582.31;4437174;32;33502;-72
2022/10/02 01:08:53;;;;;;;2.42;1.40;;;;;;;12.25;100.00;99587.66;4437336;32;34425;-73
2022/10/02 01:11:39;;;;;;;2.45;1.00;;;;;;;11.96;100.00;99580.84;4436566;32;34031;-73
2022/10/02 01:14:36;;;;;;;2.42;1.10;;;;;;;12.19;100.00;99597.97;4437103;32;34574;-74
2022/10/02 01:17:29;;;;;;;2.35;1.02;;;;;;;12.14;100.00;99604.44;4443655;32;33370;-71
2022/10/02 01:20:37;;;;;;;3.10;1.08;;;;;;;12.65;100.00;99606.69;4424657;32;33854;-74
2022/10/02 01:23:36;;;;;;;2.83;0.95;;;;;;;12.59;100.00;99611.53;4448551;32;33699;-71
2022/10/02 01:26:22;;;;;;;2.17;1.10;;;;;;;12.76;100.00;99619.78;4436424;32;34297;-72
2022/10/02 01:29:09;;;;;;;3.15;1.37;;;;;;;12.79;100.00;99612.81;4437377;32;33301;-72
2022/10/02 01:31:55;;;;;;;2.47;1.00;;;;;;;12.89;100.00;99617.16;4436436;32;33830;-73
2022/10/02 01:34:41;;;;;;;2.45;1.10;;;;;;;12.26;100.00;99636.75;4444567;32;33738;-72
2022/10/02 01:37:31;;;;;;;2.53;1.10;;;;;;;12.52;100.00;99635.94;4448424;32;33700;-71
2022/10/02 01:40:24;;;;;;;1.60;0.90;;;;;;;12.93;100.00;99643.69;4425901;32;33312;-71
2022/10/02 01:43:10;;;;;;;2.92;1.00;;;;;;;12.84;100.00;99648.41;4421731;32;33520;-71
2022/10/02 01:46:08;;;;;;;2.42;1.02;;;;;;;13.18;100.00;99650.25;4436820;32;34732;-72
2022/10/02 01:49:15;;;;;;;2.30;0.98;;;;;;;13.43;100.00;99650.53;4448166;32;33914;-72
2022/10/02 01:52:21;;;;;;;1.85;0.80;;;;;;;13.31;100.00;99662.22;4435905;32;34194;-72
2022/10/02 01:55:07;;;;;;;1.85;1.00;;;;;;;14.25;100.00;99667.59;4437155;32;34736;-72
2022/10/02 01:58:01;;;;;;;1.92;0.90;;;;;;;14.34;100.00;99682.13;4448616;32;34585;-72
2022/10/02 02:01:02;;;;;;;2.72;1.10;;;;;;;14.13;100.00;99695.87;4416716;32;34828;-72
2022/10/02 02:04:14;;;;;;;1.67;0.90;;;;;;;14.79;98.48;99692.50;4413385;32;34102;-72
2022/10/02 02:07:10;;;;;;;2.80;1.20;;;;;;;14.37;99.93;99686.97;4416511;32;33818;-72
2022/10/02 02:10:03;;;;;;;3.10;1.20;;;;;;;14.02;100.00;99699.34;4417748;32;34151;-71
2022/10/02 02:13:03;;;;;;;3.53;1.20;;;;;;;14.51;99.16;99702.41;4406298;32;34570;-72
2022/10/02 02:15:55;;;;;;;1.52;1.00;;;;;;;14.65;98.04;99703.00;4416809;32;33265;-71
2022/10/02 02:19:13;;;;;;;2.80;1.30;;;;;;;14.51;98.84;99703.22;4417255;32;33307;-72
2022/10/02 02:22:03;;;;;;;1.40;0.90;;;;;;;13.10;100.00;99702.56;4403368;32;34026;-72
2022/10/02 02:24:55;;;;;;;1.90;0.90;;;;;;;13.30;100.00;99710.16;4416744;32;33773;-72
2022/10/02 02:27:45;;;;;;;1.85;0.90;;;;;;;13.35;100.00;99698.97;4417904;32;32246;-72
2022/10/02 02:30:31;;;;;;;1.25;1.00;;;;;;;12.25;100.00;99705.78;4394623;32;34849;-73
2022/10/02 02:33:29;;;;;;;3.50;1.10;;;;;;;12.46;100.00;99711.44;4417318;32;34189;-72
2022/10/02 02:36:19;;;;;;;2.65;0.90;;;;;;;12.32;100.00;99714.34;4417616;32;33744;-72
2022/10/02 02:39:10;;;;;;;2.42;0.93;;;;;;;12.83;100.00;99710.00;4414880;32;33058;-72
2022/10/02 02:42:00;;;;;;;2.37;1.00;;;;;;;12.00;100.00;99721.03;4416642;32;34324;-72
2022/10/02 02:44:50;;;;;;;1.80;0.93;;;;;;;12.43;100.00;99717.59;4416694;32;34123;-72
2022/10/02 02:47:41;;;;;;;2.50;0.80;;;;;;;12.14;100.00;99725.28;4417355;32;34275;-71
2022/10/02 02:50:58;;;;;;;2.83;0.70;;;;;;;12.67;100.00;99720.69;4416335;32;32406;-72
2022/10/02 02:54:06;;;;;;;1.65;0.80;;;;;;;12.40;100.00;99724.53;4416529;32;33727;-72
2022/10/02 02:56:55;;;;;;;2.35;0.90;;;;;;;12.34;100.00;99723.06;4416652;32;34063;-72
2022/10/02 02:59:43;;;;;;;1.85;0.85;;;;;;;12.10;100.00;99734.50;4421955;32;33682;-72
2022/10/02 03:02:30;;;;;;;3.22;0.75;;;;;;;11.96;100.00;99731.88;4428764;32;33406;-73
2022/10/02 03:05:17;;;;;;;1.92;0.80;;;;;;;12.03;100.00;99740.44;4422847;32;33402;-71
2022/10/02 03:08:08;;;;;;;3.40;0.73;;;;;;;12.28;100.00;99743.59;4405300;32;34091;-72
2022/10/02 03:11:00;;;;;;;1.73;0.80;;;;;;;12.84;100.00;99739.12;4428647;32;33820;-72
2022/10/02 03:14:11;;;;;;;4.40;1.00;;;;;;;12.76;100.00;99745.44;4427625;32;33222;-72
2022/10/02 03:17:39;;;;;;;2.70;0.73;;;;;;;12.16;100.00;99755.19;4422888;32;34677;-73
2022/10/02 03:20:38;;;;;;;2.35;0.90;;;;;;;11.92;100.00;99755.56;4412644;32;34290;-73
2022/10/02 03:23:29;;;;;;;1.80;0.90;;;;;;;12.32;100.00;99752.78;4415469;32;34659;-72
2022/10/02 03:26:39;;;;;;;2.30;0.90;;;;;;;12.63;100.00;99751.88;4415827;32;33695;-74
2022/10/02 03:29:44;;;;;;;2.87;0.77;;;;;;;12.13;100.00;99761.31;4423188;32;34608;-72
2022/10/02 03:32:31;;;;;;;2.83;0.90;;;;;;;12.35;100.00;99763.97;4420185;32;34053;-73
2022/10/02 03:35:17;;;;;;;1.70;0.68;;;;;;;12.24;100.00;99773.66;4419464;32;33905;-72
2022/10/02 03:38:06;;;;;;;2.47;0.80;;;;;;;12.38;100.00;99773.53;4414324;32;32780;-72
2022/10/02 03:40:56;;;;;;;1.70;0.82;;;;;;;12.36;100.00;99776.56;4413075;32;33446;-71
2022/10/02 03:43:43;;;;;;;2.60;1.20;;;;;;;12.68;100.00;99784.72;4412959;32;35243;-72
2022/10/02 03:46:29;;;;;;;3.25;0.75;;;;;;;12.50;100.00;99783.88;4429647;32;34343;-72
2022/10/02 03:49:16;;;;;;;2.37;0.80;;;;;;;12.51;100.00;99793.75;4416661;32;32991;-72
2022/10/02 03:52:01;;;;;;;2.45;1.00;;;;;;;13.01;100.00;99788.63;4427702;32;33841;-71
2022/10/02 03:54:54;;;;;;;1.50;0.93;;;;;;;12.75;100.00;99782.28;4425659;32;34187;-71
2022/10/02 03:57:43;;;;;;;2.03;0.90;;;;;;;12.72;100.00;99792.00;4422491;32;34799;-71
2022/10/02 04:00:35;;;;;;;1.60;0.80;;;;;;;12.38;100.00;99787.25;4416778;32;33405;-71
2022/10/02 04:03:27;;;;;;;1.75;0.80;;;;;;;13.10;100.00;99783.12;4419053;32;34286;-71
2022/10/02 04:06:18;;;;;;;4.60;0.98;;;;;;;12.49;100.00;99790.50;4410518;32;34664;-72
2022/10/02 04:09:17;;;;;;;1.60;0.80;;;;;;;12.68;100.00;99796.53;4406124;32;34582;-71
2022/10/02 04:12:15;;;;;;;3.10;0.90;;;;;;;13.18;100.00;99787.03;4415838;32;32821;-72
2022/10/02 04:15:06;;;;;;;1.90;0.70;;;;;;;12.19;100.00;99797.69;4407021;32;33782;-72
2022/10/02 04:18:00;;;;;;;2.95;0.70;;;;;;;12.29;100.00;99803.69;4405961;32;34046;-72
2022/10/02 04:20:53;;;;;;;1.85;0.70;;;;;;;12.95;100.00;99814.69;4406813;32;33740;-71
2022/10/02 04:23:51;;;;;;;1.50;0.73;;;;;;;12.80;100.00;99810.44;4406249;32;33224;-71
2022/10/02 04:26:41;;;;;;;2.93;0.90;;;;;;;12.55;100.00;99806.53;4406718;32;35299;-71
2022/10/02 04:29:38;;;;;;;3.37;1.00;;;;;;;13.01;100.00;99801.59;4406327;32;34202;-71
2022/10/02 04:32:28;;;;;;;1.85;0.80;;;;;;;13.06;100.00;99809.66;4406912;32;33839;-71
2022/10/02 04:35:14;;;;;;;1.35;0.80;;;;;;;12.70;100.00;99818.22;4406425;32;33192;-71
2022/10/02 04:38:39;;;;;;;2.33;0.73;;;;;;;12.10;100.00;99836.94;4406515;32;33314;-71
2022/10/02 04:41:37;;;;;;;2.40;0.90;;;;;;;11.99;100.00;99834.78;4418766;32;34173;-71
2022/10/02 04:44:55;;;;;;;1.87;0.98;;;;;;;12.14;100.00;99843.41;4418699;32;34395;-71
2022/10/02 04:47:50;;;;;;;2.60;1.00;;;;;;;12.13;100.00;99861.00;4414717;32;32735;-71
2022/10/02 04:50:49;;;;;;;2.33;0.80;;;;;;;12.67;100.00;99857.34;4412895;32;168302;-73
2022/10/02 04:53:56;;;;;;;1.57;0.90;;;;;;;12.66;100.00;99856.50;4418743;32;34150;-71
2022/10/02 04:56:46;;;;;;;2.35;0.80;;;;;;;13.11;100.00;99863.72;4406288;32;33590;-71
2022/10/02 04:59:57;;;;;;;2.10;0.75;;;;;;;11.69;100.00;99878.31;4425402;32;33547;-71
2022/10/02 05:02:49;;;;;;;1.92;0.80;;;;;;;12.26;100.00;99886.75;4433561;32;33523;-71
2022/10/02 05:06:12;;;;;;;2.90;0.90;;;;;;;12.63;100.00;99881.09;4429270;32;34196;-72
2022/10/02 05:09:44;;;;;;;1.85;0.80;;;;;;;12.04;100.00;99879.37;4433289;32;33375;-71
2022/10/02 05:12:43;;;;;;;3.33;0.80;;;;;;;12.31;100.00;99894.06;4433399;32;33311;-71
2022/10/02 05:15:51;;;;;;;2.20;0.90;;;;;;;11.82;100.00;99891.16;4433343;32;33769;-72
2022/10/02 05:18:43;;;;;;;2.40;0.80;;;;;;;11.99;100.00;99898.75;4433438;32;34099;-71
2022/10/02 05:21:55;;;;;;;2.58;1.00;;;;;;;12.18;100.00;99906.78;4433742;32;34700;-71
2022/10/02 05:24:58;;;;;;;2.75;1.10;;;;;;;12.34;100.00;99896.97;4432437;32;33290;-71
2022/10/02 05:27:48;;;;;;;2.15;1.02;;;;;;;12.99;100.00;99895.41;4421156;32;34725;-71
2022/10/02 05:30:45;;;;;;;1.85;0.73;;;;;;;12.53;100.00;99901.44;4433634;32;34154;-71
2022/10/02 05:33:47;;;;;;;2.12;0.75;;;;;;;12.84;100.00;99901.37;4432483;32;33342;-71
2022/10/02 05:36:42;;;;;;;3.10;0.88;;;;;;;12.82;100.00;99909.13;4432599;32;32726;-71
2022/10/02 05:39:32;;;;;;;2.40;1.10;;;;;;;12.36;100.00;99907.66;4433486;32;34327;-71
2022/10/02 05:42:30;;;;;;;2.85;0.95;;;;;;;13.27;100.00;99901.47;4432726;32;33922;-71
2022/10/02 05:45:29;;;;;;;2.08;0.70;;;;;;;13.25;100.00;99911.97;4420998;32;34611;-72
2022/10/02 05:48:20;;;;;;;1.75;0.85;;;;;;;12.75;100.00;99914.25;4431849;32;33056;-70
2022/10/02 05:51:28;;;;;;;1.20;0.77;;;;;;;13.01;100.00;99915.16;4433554;32;33854;-71
2022/10/02 05:54:33;;;;;;;2.77;0.90;;;;;;;13.94;100.00;99916.69;4431669;32;35069;-71
2022/10/02 05:57:44;;;;;;;2.53;0.80;;;;;;;13.64;100.00;99925.94;4429585;32;33949;-71
2022/10/02 06:00:45;;;;;;;3.30;0.82;;;;;;;13.02;100.00;99936.03;4430255;32;31443;-72
2022/10/02 06:03:54;;;;;;;2.15;0.80;;;;;;;12.76;100.00;99935.16;4431300;32;33826;-71
2022/10/02 06:06:45;;;;;;;2.97;1.10;;;;;;;12.62;100.00;99931.69;4431354;32;34061;-71
2022/10/02 06:09:41;;;;;;;1.77;0.90;;;;;;;12.36;100.00;99941.44;4431960;32;33866;-72
2022/10/02 06:12:34;;;;;;;4.70;1.27;;;;;;;12.46;100.00;99943.09;4432603;32;33550;-71
2022/10/02 06:15:32;;;;;;;2.95;0.90;;;;;;;12.70;100.00;99950.16;4431985;32;34458;-71
2022/10/02 06:18:25;;;;;;;2.45;0.88;;;;;;;12.87;100.00;99944.72;4421094;32;34166;-72
2022/10/02 06:21:22;;;;;;;2.00;0.80;;;;;;;12.75;100.00;99952.75;4432412;32;33848;-76
2022/10/02 06:24:16;;;;;;;2.95;0.93;;;;;;;12.58;100.00;99959.81;4431808;32;33143;-71
2022/10/02 06:27:36;;;;;;;4.50;1.85;;;;;;;12.92;100.00;99969.34;4431814;32;34670;-71
2022/10/02 06:30:23;;;;;;;4.18;1.42;;;;;;;13.09;100.00;99967.75;4432922;32;34210;-72
2022/10/02 06:33:20;;;;;;;2.22;0.82;;;;;;;13.02;100.00;99973.72;4432267;32;33917;-72
2022/10/02 06:36:28;;;;;;;2.20;0.80;;;;;;;13.23;100.00;99980.28;4421351;32;32817;-71
2022/10/02 06:39:22;;;;;;;2.53;0.95;;;;;;;13.26;100.00;99974.16;4433166;32;33896;-71
2022/10/02 06:42:35;;;;;;;1.98;0.80;;;;;;;13.25;100.00;99986.28;4433341;32;33971;-72
2022/10/02 06:45:57;;;;;;;3.20;1.10;;;;;;;13.63;100.00;99987.63;4432211;32;33881;-73
2022/10/02 06:49:15;;;;;;;2.25;0.90;;;;;;;13.19;100.00;99989.47;4431789;32;33608;-71
2022/10/02 06:52:30;;;;;;;2.83;0.95;;;;;;;13.23;100.00;100002.28;4433116;32;33715;-71
2022/10/02 06:55:31;;;;;;;3.78;1.45;;;;;;;13.37;100.00;100007.66;4431753;32;34012;-71
2022/10/02 06:58:27;;;;;;;3.05;1.23;;;;;;;13.15;100.00;100016.00;4432914;32;34051;-71
2022/10/02 07:01:35;;;;;;;4.00;1.40;;;;;;;13.29;100.00;100019.50;4432678;32;34183;-74
2022/10/02 07:04:46;;;;;;;6.10;1.70;;;;;;;13.41;100.00;100019.66;4431669;32;34768;-72
2022/10/02 07:07:54;;;;;;;5.32;1.55;;;;;;;13.60;100.00;100019.34;4432952;32;34493;-73
2022/10/02 07:10:46;;;;;;;5.55;1.98;;;;;;;13.75;100.00;100036.56;4432466;32;33871;-73
2022/10/02 07:13:35;;;;;;;4.72;1.33;;;;;;;13.68;100.00;100042.53;4430933;32;32934;-72
2022/10/02 07:16:53;;;;;;;5.32;1.65;;;;;;;13.80;100.00;100037.19;4431931;32;33871;-72
2022/10/02 07:19:58;;;;;;;4.60;1.50;;;;;;;14.05;100.00;100038.34;4431009;32;34260;-71
2022/10/02 07:23:08;;;;;;;4.18;1.17;;;;;;;13.51;100.00;100035.06;4431564;32;33724;-71
2022/10/02 07:26:36;;;;;;;3.33;1.15;;;;;;;14.05;100.00;100035.59;4431526;32;33287;-72
2022/10/02 07:29:44;;;;;;;3.57;1.43;;;;;;;13.89;100.00;100027.03;4432278;32;33479;-72
2022/10/02 07:32:40;;;;;;;5.15;1.70;;;;;;;14.30;100.00;100033.97;4431361;32;34027;-72
2022/10/02 07:35:50;;;;;;;3.25;1.20;;;;;;;14.08;100.00;100031.38;4432201;32;33886;-72
2022/10/02 07:38:59;;;;;;;2.65;1.12;;;;;;;14.12;100.00;100035.12;4432058;32;33287;-71
2022/10/02 07:42:01;;;;;;;3.77;1.10;;;;;;;14.95;99.39;100034.00;4432875;32;33904;-72
2022/10/02 07:45:26;;;;;;;4.50;1.37;;;;;;;14.43;98.60;100043.19;4433070;32;34175;-72
2022/10/02 07:48:40;;;;;;;4.25;1.10;;;;;;;14.27;98.70;100036.56;4432217;32;34563;-72
2022/10/02 07:51:46;;;;;;;4.00;1.40;;;;;;;14.34;99.07;100040.47;4434182;32;34259;-72
2022/10/02 07:54:43;;;;;;;2.87;1.10;;;;;;;14.72;95.88;100034.25;4414696;32;34723;-71
2022/10/02 07:57:41;;;;;;;3.92;1.25;;;;;;;15.45;92.43;100041.53;4433641;32;34172;-72
2022/10/02 08:00:30;;;;;;;4.87;1.17;;;;;;;14.85;95.65;100049.75;4433065;32;34028;-72
2022/10/02 08:03:20;;;;;;;3.85;1.10;;;;;;;14.82;96.63;100055.13;4432335;32;33475;-72
2022/10/02 08:06:06;;;;;;;3.55;1.20;;;;;;;14.73;94.11;100057.91;4433034;32;33485;-72
2022/10/02 08:09:02;;;;;;;3.87;1.00;;;;;;;14.36;97.02;100068.50;4433704;32;34140;-72
2022/10/02 08:11:56;;;;;;;5.43;1.25;;;;;;;14.70;94.41;100061.34;4432400;32;33235;-73
2022/10/02 08:14:44;;;;;;;2.85;0.80;;;;;;;14.71;92.83;100060.19;4432820;32;33279;-73
2022/10/02 08:17:38;;;;;;;2.72;0.70;;;;;;;14.60;91.97;100054.22;4432837;32;33689;-71
2022/10/02 08:20:30;;;;;;;3.20;0.90;;;;;;;14.39;90.83;100067.84;4433391;32;35108;-72
2022/10/02 08:23:28;;;;;;;3.17;0.90;;;;;;;14.52;92.80;100062.50;4432807;32;34153;-72
2022/10/02 08:26:34;;;;;;;4.95;1.00;;;;;;;14.80;91.67;100065.72;4432754;32;33262;-72
2022/10/02 08:29:39;;;;;;;6.37;1.50;;;;;;;15.04;90.40;100068.69;4432207;32;33420;-72
2022/10/02 08:32:30;;;;;;;4.65;1.45;;;;;;;15.24;92.58;100067.16;4433257;32;33832;-73
2022/10/02 08:35:20;;;;;;;5.67;1.40;;;;;;;15.04;93.15;100068.69;4432634;32;34094;-72
2022/10/02 08:38:33;;;;;;;3.27;1.07;;;;;;;15.05;94.45;100080.53;4432795;32;33332;-73
2022/10/02 08:41:42;;;;;;;4.27;1.43;;;;;;;15.23;92.63;100075.78;4432686;32;34716;-75
2022/10/02 08:44:41;;;;;;;8.07;3.05;;;;;;;14.66;91.54;100079.69;4432334;32;33043;-73
2022/10/02 08:48:05;;;;;;;7.05;2.65;;;;;;;14.80;90.82;100073.97;4433435;32;33936;-72
2022/10/02 08:51:23;;;;;;;4.70;1.73;;;;;;;15.47;91.68;100066.88;4432228;32;33226;-72
2022/10/02 08:54:15;;;;;;;6.12;1.42;;;;;;;15.36;86.63;100071.16;4432841;32;34439;-72
2022/10/02 08:57:40;;;;;;;5.35;1.40;;;;;;;14.69;90.52;100068.00;4432389;32;35092;-73
2022/10/02 09:00:38;;;;;;;4.97;1.62;;;;;;;14.71;89.27;100081.44;4432983;32;34097;-72
2022/10/02 09:03:53;;;;;;;6.32;2.62;;;;;;;15.13;90.11;100079.69;4434041;32;33485;-72
2022/10/02 09:06:58;;;;;;;4.25;1.00;;;;;;;15.15;89.96;100076.62;4432216;32;34286;-71
2022/10/02 09:10:11;;;;;;;4.97;1.42;;;;;;;14.98;91.06;100074.72;4433103;32;34698;-72
2022/10/02 09:13:37;;;;;;;9.13;4.80;;;;;;;15.47;86.28;100064.91;4433616;32;33350;-72
2022/10/02 09:16:38;;;;;;;5.05;1.90;;;;;;;15.56;88.05;100075.91;4433064;32;33303;-72
2022/10/02 09:19:39;;;;;;;7.82;2.30;;;;;;;15.44;87.97;100078.59;4433198;32;34704;-72
2022/10/02 09:22:46;;;;;;;7.82;3.25;;;;;;;15.65;84.38;100082.22;4432603;32;34215;-72
2022/10/02 09:25:52;;;;;;;5.68;1.37;;;;;;;15.48;85.09;100074.00;4433428;32;34672;-72
2022/10/02 09:28:54;;;;;;;7.05;1.40;;;;;;;15.20;85.50;100070.91;4433606;32;33324;-74
2022/10/02 09:32:02;;;;;;;4.20;1.20;;;;;;;15.17;85.81;100077.91;4433207;32;34776;-73
2022/10/02 09:34:57;;;;;;;5.97;1.50;;;;;;;15.25;82.02;100074.31;4433068;32;34163;-72
2022/10/02 09:38:12;;;;;;;7.12;3.08;;;;;;;15.40;84.23;100063.84;4432664;32;34753;-73
2022/10/02 09:41:16;;;;;;;8.23;3.43;;;;;;;15.15;81.16;100062.81;4432109;32;34344;-73
2022/10/02 09:44:23;;;;;;;5.00;1.50;;;;;;;16.08;79.19;100056.25;4432261;32;34721;-73
2022/10/02 09:47:15;;;;;;;4.03;0.90;;;;;;;16.30;78.47;100051.50;4421363;32;34068;-73
2022/10/02 09:50:33;;;;;;;8.93;3.20;;;;;;;15.76;78.81;100059.75;4431731;32;34290;-74
2022/10/02 09:53:41;;;;;;;8.50;2.37;;;;;;;15.95;78.82;100054.56;4432200;32;33365;-73
2022/10/02 09:56:36;;;;;;;6.20;1.83;;;;;;;16.31;77.20;100044.84;4432343;32;33856;-76
2022/10/02 09:59:51;;;;;;;5.80;1.45;;;;;;;16.08;72.05;100047.13;4432274;32;33189;-77
2022/10/02 10:02:52;;;;;;;5.55;1.20;;;;;;;15.74;75.07;100032.47;4432192;32;33930;-73
2022/10/02 10:05:52;;;;;;;4.03;0.90;;;;;;;15.53;75.42;100047.00;4433213;32;33456;-73
2022/10/02 10:08:44;;;;;;;4.68;1.30;;;;;;;15.84;74.60;100029.28;4433394;32;34694;-73
2022/10/02 10:11:36;;;;;;;4.90;1.10;;;;;;;16.70;73.20;100020.50;4432063;32;34132;-73
2022/10/02 10:14:29;;;;;;;5.95;1.70;;;;;;;17.04;70.14;100027.63;4431941;32;33795;-75
2022/10/02 10:17:18;;;;;;;5.43;1.52;;;;;;;16.97;70.50;100030.97;4431428;32;33852;-74
2022/10/02 10:20:24;;;;;;;4.82;1.40;;;;;;;17.17;69.00;100039.53;4430214;32;33800;-74
2022/10/02 10:23:35;;;;;;;3.65;1.00;;;;;;;16.77;67.14;100042.94;4433271;32;33979;-75
2022/10/02 10:26:52;;;;;;;3.60;0.80;;;;;;;16.10;71.18;100026.31;4432297;32;34184;-75
2022/10/02 10:29:56;;;;;;;3.08;1.20;;;;;;;16.38;70.17;100014.69;4433117;32;34253;-76
2022/10/02 10:33:07;;;;;;;4.37;0.90;;;;;;;16.74;70.22;100018.69;4431908;32;34669;-76
2022/10/02 10:38:30;;;;;;;4.10;1.10;;;;;;;16.49;70.67;100021.41;4431841;32;33722;-75
2022/10/02 10:40:03;;;;;;;5.12;0.95;;;;;;;16.86;69.36;100024.28;4432871;32;33788;-77
2022/10/02 10:43:09;;;;;;;3.67;1.00;;;;;;;16.24;71.72;100016.94;4369285;32;33282;-74
2022/10/02 10:46:36;;;;;;;4.93;1.10;;;;;;;16.08;73.53;100022.25;4431742;32;34611;-73
2022/10/02 10:49:41;;;;;;;5.03;1.10;;;;;;;16.74;73.29;100019.50;4413622;32;34126;-75
2022/10/02 10:52:57;;;;;;;3.67;1.00;;;;;;;16.02;75.68;100026.38;4430931;32;33762;-76
2022/10/02 10:56:21;;;;;;;4.45;1.23;;;;;;;15.63;77.94;100017.41;4432123;32;33228;-75
2022/10/02 10:59:16;;;;;;;5.75;1.10;;;;;;;15.92;76.95;100033.13;4431067;32;33650;-73
2022/10/02 11:02:47;;;;;;;4.93;1.35;;;;;;;15.77;76.38;100019.91;4422023;32;34044;-75
2022/10/02 11:05:52;;;;;;;6.20;1.02;;;;;;;15.41;77.03;100021.28;4431907;32;33537;-73
2022/10/02 11:08:54;;;;;;;4.32;1.30;;;;;;;15.64;77.29;100033.63;4431880;32;34004;-73
2022/10/02 11:12:01;;;;;;;3.00;0.90;;;;;;;15.67;81.14;100032.94;4432419;32;34751;-74
2022/10/02 11:15:25;;;;;;;5.90;1.10;;;;;;;15.65;79.43;100042.72;4431391;32;33773;-74
2022/10/02 11:18:19;;;;;;;4.70;1.02;;;;;;;15.86;78.25;100037.25;4432072;32;34281;-74
2022/10/02 11:21:22;;;;;;;3.87;0.95;;;;;;;15.71;78.01;100035.91;4430463;32;33338;-75
2022/10/02 11:24:17;;;;;;;6.80;1.10;;;;;;;15.57;78.34;100036.13;4431982;32;34779;-73
2022/10/02 11:27:06;;;;;;;3.15;1.00;;;;;;;15.71;79.46;100031.19;4430356;32;33635;-73
2022/10/02 11:30:13;;;;;;;3.15;1.02;;;;;;;16.23;79.23;100020.84;4431490;32;33799;-72
2022/10/02 11:33:12;;;;;;;4.12;0.90;;;;;;;15.65;79.30;100015.94;4432540;32;33308;-73
2022/10/02 11:36:27;;;;;;;3.20;1.10;;;;;;;15.60;80.22;100023.59;4430179;32;33594;-73
2022/10/02 11:39:20;;;;;;;4.45;0.90;;;;;;;16.11;79.22;100005.81;4430976;32;33816;-73
2022/10/02 11:42:10;;;;;;;4.83;1.03;;;;;;;16.11;79.60;100008.59;4431544;32;34646;-72
2022/10/02 11:45:25;;;;;;;3.47;0.90;;;;;;;16.22;78.95;99988.81;4432154;32;33576;-76
2022/10/02 11:48:13;;;;;;;4.22;1.05;;;;;;;16.10;78.57;99995.91;4430838;32;33824;-73
2022/10/02 11:51:12;;;;;;;1.62;0.60;;;;;;;16.13;78.20;100006.28;4430899;32;35576;-75
2022/10/02 11:54:11;;;;;;;5.22;1.00;;;;;;;16.22;77.96;100010.91;4432329;32;33433;-75
2022/10/02 11:57:10;;;;;;;3.10;0.80;;;;;;;16.29;78.68;99994.59;4431404;32;32856;-74
2022/10/02 12:00:23;;;;;;;5.28;1.10;;;;;;;16.71;77.86;100005.56;4431066;32;33214;-74
2022/10/02 12:03:16;;;;;;;2.97;0.80;;;;;;;16.66;82.14;100005.75;4432037;32;35224;-75
2022/10/02 12:06:18;;;;;;;2.60;0.75;;;;;;;16.60;81.01;100010.72;4430848;32;34899;-73
2022/10/02 12:09:19;;;;;;;3.65;0.95;;;;;;;16.93;79.96;100013.44;4430182;32;34314;-74
2022/10/02 12:12:23;;;;;;;3.37;0.80;;;;;;;16.31;84.39;100018.00;4431215;32;33869;-75
2022/10/02 12:15:16;;;;;;;2.62;0.77;;;;;;;15.83;85.93;100021.34;4430981;32;35129;-74
2022/10/02 12:18:30;;;;;;;4.03;0.95;;;;;;;15.78;86.72;100016.03;4431833;32;34570;-74
2022/10/02 12:28:54;;;;;;;4.90;0.80;;;;;;;15.79;89.63;99996.31;4433555;32;34206;-72
2022/10/02 12:32:00;;;;;;;3.42;0.80;;;;;;;16.37;88.92;99985.41;4432668;32;33446;-72
2022/10/02 12:35:01;;;;;;;2.93;0.80;;;;;;;16.07;87.81;99974.47;4432985;32;32811;-74
2022/10/02 12:37:53;;;;;;;3.00;0.70;;;;;;;16.14;87.57;99971.19;4432715;32;33766;-73
2022/10/02 12:41:01;;;;;;;2.70;0.70;;;;;;;16.25;89.31;99975.12;4432714;32;33980;-73
2022/10/02 12:44:08;;;;;;;3.17;1.10;;;;;;;16.29;86.94;99966.94;4432474;32;33770;-73
2022/10/02 12:47:02;;;;;;;3.55;0.70;;;;;;;16.17;88.62;99956.66;4432267;32;34219;-73
2022/10/02 12:49:54;;;;;;;2.37;0.60;;;;;;;16.55;87.10;99959.16;4432790;32;34658;-73
2022/10/02 12:53:02;;;;;;;2.92;1.00;;;;;;;15.76;92.44;99955.56;4433993;32;34083;-73
2022/10/02 12:55:55;;;;;;;3.70;0.80;;;;;;;15.95;91.25;99950.34;4432255;32;33368;-73
2022/10/02 12:59:23;;;;;;;3.15;0.80;;;;;;;15.60;93.39;99947.06;4433563;32;32997;-73
2022/10/02 13:02:25;;;;;;;3.22;0.80;;;;;;;16.21;91.39;99954.03;4400663;32;33609;-75
2022/10/02 13:06:09;;;;;;;3.92;0.80;;;;;;;16.12;90.05;99941.09;4433848;32;33130;-72
2022/10/02 13:09:29;;;;;;;2.90;0.70;;;;;;;15.86;93.47;99937.78;4432574;32;34036;-73
2022/10/02 13:12:49;;;;;;;3.27;1.30;;;;;;;16.06;92.44;99934.16;4433048;32;33529;-73
2022/10/02 13:15:49;;;;;;;3.08;0.93;;;;;;;15.96;93.28;99921.56;4422338;32;33550;-82
2022/10/02 13:18:42;;;;;;;2.67;0.75;;;;;;;16.36;90.78;99928.47;4433954;32;34817;-82
2022/10/02 13:21:37;;;;;;;3.58;1.10;;;;;;;15.62;94.93;99936.47;4433475;32;34531;-82
2022/10/02 13:24:33;;;;;;;3.22;1.08;;;;;;;15.81;94.77;99919.44;4434456;32;32960;-82
2022/10/02 13:28:01;;;;;;;4.18;1.02;;;;;;;15.78;93.50;99931.19;4433761;32;34769;-82
2022/10/02 13:30:57;;;;;;;2.78;0.90;;;;;;;15.70;95.27;99918.25;4386301;32;34252;-82
2022/10/02 13:33:59;;;;;;;2.50;0.60;;;;;;;15.95;92.73;99914.44;4435669;32;33809;-82
2022/10/02 13:37:08;;;;;;;3.10;0.90;;;;;;;16.25;92.21;99911.53;4422466;32;33214;-82
2022/10/02 13:40:04;;;;;;;3.67;0.90;;;;;;;16.31;93.64;99921.22;4432773;32;34345;-84
2022/10/02 13:43:15;;;;;;;2.60;0.63;;;;;;;15.87;91.76;99906.22;4433487;32;34112;-82
2022/10/02 13:46:19;;;;;;;3.65;0.88;;;;;;;16.29;89.97;99911.66;4434638;32;33276;-82
2022/10/02 13:49:12;;;;;;;3.83;0.80;;;;;;;16.00;91.67;99899.59;4435127;32;33573;-84
2022/10/02 13:52:23;;;;;;;2.92;0.85;;;;;;;15.93;92.19;99902.09;4433581;32;33499;-82
2022/10/02 13:55:27;;;;;;;1.73;0.65;;;;;;;15.54;95.25;99901.47;4433641;32;33767;-82
2022/10/02 13:58:53;;;;;;;2.05;1.00;;;;;;;15.56;92.69;99885.34;4432419;32;34283;-82
2022/10/02 14:02:00;;;;;;;2.92;0.60;;;;;;;15.33;94.85;99892.38;4414213;32;33213;-82
2022/10/02 14:04:46;;;;;;;2.40;0.57;;;;;;;15.57;93.95;99897.19;4434484;32;33989;-82
2022/10/02 14:08:10;;;;;;;2.17;0.60;;;;;;;15.89;92.13;99890.94;4433142;32;35146;-82
2022/10/02 14:11:15;;;;;;;2.90;0.68;;;;;;;15.66;93.89;99900.72;4434434;32;34004;-82
2022/10/02 14:14:43;;;;;;;2.12;0.80;;;;;;;16.13;91.93;99901.22;4432986;32;33999;-83